sensor_id;sensor_type;location;lat;lon;timestamp;P1;durP1;ratioP1;P2;durP2;ratioP2
17201;SDS011;8717;53.588;10.176;2022-11-21T00:00:04;28.97;;;17.33;;
17201;SDS011;8717;53.588;10.176;2022-11-21T00:02:32;26.27;;;16.43;;
17201;SDS011;8717;53.588;10.176;2022-11-21T00:04:59;71.23;;;19.07;;
17201;SDS011;8717;53.588;10.176;2022-11-21T00:07:26;26.30;;;16.53;;
17201;SDS011;8717;53.588;10.176;2022-11-21T00:09:52;24.40;;;15.97;;
17201;SDS011;8717;53.588;10.176;2022-11-21T00:12:19;27.77;;;16.30;;
17201;SDS011;8717;53.588;10.176;2022-11-21T00:14:47;22.70;;;16.30;;
17201;SDS011;8717;53.588;10.176;2022-11-21T00:17:13;25.70;;;16.97;;
17201;SDS011;8717;53.588;10.176;2022-11-21T00:19:40;26.93;;;17.07;;
17201;SDS011;8717;53.588;10.176;2022-11-21T00:22:07;22.57;;;15.60;;
17201;SDS011;8717;53.588;10.176;2022-11-21T00:24:33;23.20;;;16.13;;
17201;SDS011;8717;53.588;10.176;2022-11-21T00:27:00;22.27;;;14.70;;
17201;SDS011;8717;53.588;10.176;2022-11-21T00:29:27;23.97;;;15.00;;
17201;SDS011;8717;53.588;10.176;2022-11-21T00:31:55;22.03;;;15.17;;
17201;SDS011;8717;53.588;10.176;2022-11-21T00:34:22;25.30;;;15.83;;
17201;SDS011;8717;53.588;10.176;2022-11-21T00:36:48;24.63;;;16.13;;
17201;SDS011;8717;53.588;10.176;2022-11-21T00:39:15;23.87;;;16.13;;
17201;SDS011;8717;53.588;10.176;2022-11-21T00:41:41;22.00;;;15.77;;
17201;SDS011;8717;53.588;10.176;2022-11-21T00:44:09;24.17;;;15.93;;
17201;SDS011;8717;53.588;10.176;2022-11-21T00:46:35;26.30;;;16.07;;
17201;SDS011;8717;53.588;10.176;2022-11-21T00:49:03;23.87;;;15.77;;
17201;SDS011;8717;53.588;10.176;2022-11-21T00:51:30;23.40;;;15.60;;
17201;SDS011;8717;53.588;10.176;2022-11-21T00:53:57;25.90;;;16.67;;
17201;SDS011;8717;53.588;10.176;2022-11-21T00:56:23;24.37;;;16.50;;
17201;SDS011;8717;53.588;10.176;2022-11-21T00:58:50;22.20;;;15.20;;
17201;SDS011;8717;53.588;10.176;2022-11-21T01:01:17;21.60;;;14.23;;
17201;SDS011;8717;53.588;10.176;2022-11-21T01:03:43;27.00;;;16.03;;
17201;SDS011;8717;53.588;10.176;2022-11-21T01:06:13;25.77;;;16.00;;
17201;SDS011;8717;53.588;10.176;2022-11-21T01:08:40;25.10;;;15.73;;
17201;SDS011;8717;53.588;10.176;2022-11-21T01:11:10;24.60;;;15.43;;
17201;SDS011;8717;53.588;10.176;2022-11-21T01:13:38;21.30;;;14.33;;
17201;SDS011;8717;53.588;10.176;2022-11-21T01:16:06;26.23;;;16.23;;
17201;SDS011;8717;53.588;10.176;2022-11-21T01:18:34;22.37;;;15.23;;
17201;SDS011;8717;53.588;10.176;2022-11-21T01:21:02;26.60;;;16.70;;
17201;SDS011;8717;53.588;10.176;2022-11-21T01:23:31;25.43;;;16.30;;
17201;SDS011;8717;53.588;10.176;2022-11-21T01:26:01;23.43;;;16.00;;
17201;SDS011;8717;53.588;10.176;2022-11-21T01:28:28;23.60;;;16.00;;
17201;SDS011;8717;53.588;10.176;2022-11-21T01:31:01;23.57;;;15.53;;
17201;SDS011;8717;53.588;10.176;2022-11-21T01:33:28;23.70;;;15.80;;
17201;SDS011;8717;53.588;10.176;2022-11-21T01:35:55;24.07;;;16.53;;
17201;SDS011;8717;53.588;10.176;2022-11-21T01:38:22;24.43;;;17.43;;
17201;SDS011;8717;53.588;10.176;2022-11-21T01:40:50;24.00;;;15.43;;
17201;SDS011;8717;53.588;10.176;2022-11-21T01:43:16;22.60;;;14.70;;
17201;SDS011;8717;53.588;10.176;2022-11-21T01:45:54;24.63;;;15.70;;
17201;SDS011;8717;53.588;10.176;2022-11-21T01:48:24;28.07;;;18.47;;
17201;SDS011;8717;53.588;10.176;2022-11-21T01:50:57;23.20;;;15.87;;
17201;SDS011;8717;53.588;10.176;2022-11-21T01:53:28;24.73;;;16.10;;
17201;SDS011;8717;53.588;10.176;2022-11-21T01:55:56;23.83;;;16.67;;
17201;SDS011;8717;53.588;10.176;2022-11-21T01:58:23;24.07;;;16.13;;
17201;SDS011;8717;53.588;10.176;2022-11-21T02:00:50;26.40;;;17.07;;
17201;SDS011;8717;53.588;10.176;2022-11-21T02:03:18;25.70;;;17.43;;
17201;SDS011;8717;53.588;10.176;2022-11-21T02:05:49;26.30;;;17.10;;
17201;SDS011;8717;53.588;10.176;2022-11-21T02:08:19;25.30;;;16.37;;
17201;SDS011;8717;53.588;10.176;2022-11-21T02:10:49;25.83;;;16.90;;
17201;SDS011;8717;53.588;10.176;2022-11-21T02:13:23;25.63;;;16.70;;
17201;SDS011;8717;53.588;10.176;2022-11-21T02:15:50;22.60;;;15.07;;
17201;SDS011;8717;53.588;10.176;2022-11-21T02:18:17;25.57;;;17.50;;
17201;SDS011;8717;53.588;10.176;2022-11-21T02:20:45;24.03;;;16.10;;
17201;SDS011;8717;53.588;10.176;2022-11-21T02:23:20;24.67;;;15.83;;
17201;SDS011;8717;53.588;10.176;2022-11-21T02:25:52;24.10;;;15.90;;
17201;SDS011;8717;53.588;10.176;2022-11-21T02:28:20;21.73;;;15.10;;
17201;SDS011;8717;53.588;10.176;2022-11-21T02:30:48;25.57;;;14.67;;
17201;SDS011;8717;53.588;10.176;2022-11-21T02:33:15;24.67;;;15.40;;
17201;SDS011;8717;53.588;10.176;2022-11-21T02:35:42;23.07;;;14.73;;
17201;SDS011;8717;53.588;10.176;2022-11-21T02:38:10;26.23;;;15.37;;
17201;SDS011;8717;53.588;10.176;2022-11-21T02:40:44;21.43;;;15.40;;
17201;SDS011;8717;53.588;10.176;2022-11-21T02:43:17;26.50;;;16.37;;
17201;SDS011;8717;53.588;10.176;2022-11-21T02:45:47;25.83;;;15.87;;
17201;SDS011;8717;53.588;10.176;2022-11-21T02:48:14;36.77;;;22.33;;
17201;SDS011;8717;53.588;10.176;2022-11-21T02:50:41;45.43;;;26.37;;
17201;SDS011;8717;53.588;10.176;2022-11-21T02:53:09;49.07;;;28.43;;
17201;SDS011;8717;53.588;10.176;2022-11-21T02:55:37;46.73;;;26.97;;
17201;SDS011;8717;53.588;10.176;2022-11-21T02:58:04;35.77;;;22.80;;
17201;SDS011;8717;53.588;10.176;2022-11-21T03:00:33;29.53;;;19.37;;
17201;SDS011;8717;53.588;10.176;2022-11-21T03:03:01;29.47;;;18.70;;
17201;SDS011;8717;53.588;10.176;2022-11-21T03:05:28;30.17;;;17.63;;
17201;SDS011;8717;53.588;10.176;2022-11-21T03:07:55;27.57;;;17.30;;
17201;SDS011;8717;53.588;10.176;2022-11-21T03:10:22;25.07;;;16.77;;
17201;SDS011;8717;53.588;10.176;2022-11-21T03:12:48;22.90;;;15.57;;
17201;SDS011;8717;53.588;10.176;2022-11-21T03:15:25;30.53;;;17.40;;
17201;SDS011;8717;53.588;10.176;2022-11-21T03:17:54;29.03;;;17.03;;
17201;SDS011;8717;53.588;10.176;2022-11-21T03:20:20;24.77;;;15.90;;
17201;SDS011;8717;53.588;10.176;2022-11-21T03:22:47;22.63;;;15.63;;
17201;SDS011;8717;53.588;10.176;2022-11-21T03:25:14;28.57;;;18.13;;
17201;SDS011;8717;53.588;10.176;2022-11-21T03:27:41;29.90;;;18.53;;
17201;SDS011;8717;53.588;10.176;2022-11-21T03:30:08;29.77;;;19.47;;
17201;SDS011;8717;53.588;10.176;2022-11-21T03:32:36;27.10;;;18.13;;
17201;SDS011;8717;53.588;10.176;2022-11-21T03:35:04;26.00;;;17.47;;
17201;SDS011;8717;53.588;10.176;2022-11-21T03:37:31;25.43;;;17.00;;
17201;SDS011;8717;53.588;10.176;2022-11-21T03:39:58;23.47;;;15.97;;
17201;SDS011;8717;53.588;10.176;2022-11-21T03:42:24;26.13;;;16.70;;
17201;SDS011;8717;53.588;10.176;2022-11-21T03:44:51;24.37;;;16.03;;
17201;SDS011;8717;53.588;10.176;2022-11-21T03:47:18;26.40;;;16.17;;
17201;SDS011;8717;53.588;10.176;2022-11-21T03:49:44;26.70;;;16.80;;
17201;SDS011;8717;53.588;10.176;2022-11-21T03:52:12;27.97;;;17.40;;
17201;SDS011;8717;53.588;10.176;2022-11-21T03:54:39;22.50;;;15.63;;
17201;SDS011;8717;53.588;10.176;2022-11-21T03:57:06;25.97;;;16.40;;
17201;SDS011;8717;53.588;10.176;2022-11-21T03:59:32;26.63;;;16.20;;
17201;SDS011;8717;53.588;10.176;2022-11-21T04:01:59;48.23;;;25.00;;
17201;SDS011;8717;53.588;10.176;2022-11-21T04:04:26;50.07;;;21.50;;
17201;SDS011;8717;53.588;10.176;2022-11-21T04:06:52;41.47;;;22.53;;
17201;SDS011;8717;53.588;10.176;2022-11-21T04:09:20;27.07;;;16.63;;
17201;SDS011;8717;53.588;10.176;2022-11-21T04:11:47;39.80;;;19.07;;
17201;SDS011;8717;53.588;10.176;2022-11-21T04:14:14;103.13;;;24.67;;
17201;SDS011;8717;53.588;10.176;2022-11-21T04:16:40;78.90;;;21.90;;
17201;SDS011;8717;53.588;10.176;2022-11-21T04:19:07;52.00;;;21.20;;
17201;SDS011;8717;53.588;10.176;2022-11-21T04:21:34;223.90;;;31.07;;
17201;SDS011;8717;53.588;10.176;2022-11-21T04:24:00;184.97;;;29.27;;
17201;SDS011;8717;53.588;10.176;2022-11-21T04:26:28;313.47;;;39.10;;
17201;SDS011;8717;53.588;10.176;2022-11-21T04:28:56;118.73;;;28.67;;
17201;SDS011;8717;53.588;10.176;2022-11-21T04:31:22;141.90;;;25.27;;
17201;SDS011;8717;53.588;10.176;2022-11-21T04:33:49;309.67;;;38.67;;
17201;SDS011;8717;53.588;10.176;2022-11-21T04:36:16;156.67;;;28.87;;
17201;SDS011;8717;53.588;10.176;2022-11-21T04:38:43;146.43;;;29.33;;
17201;SDS011;8717;53.588;10.176;2022-11-21T04:41:09;181.47;;;31.60;;
17201;SDS011;8717;53.588;10.176;2022-11-21T04:43:37;435.03;;;49.37;;
17201;SDS011;8717;53.588;10.176;2022-11-21T04:46:04;123.63;;;28.53;;
17201;SDS011;8717;53.588;10.176;2022-11-21T04:48:30;54.67;;;25.30;;
17201;SDS011;8717;53.588;10.176;2022-11-21T04:50:57;52.23;;;25.60;;
17201;SDS011;8717;53.588;10.176;2022-11-21T04:53:24;78.93;;;26.63;;
17201;SDS011;8717;53.588;10.176;2022-11-21T04:55:50;259.40;;;38.80;;
17201;SDS011;8717;53.588;10.176;2022-11-21T04:58:17;99.90;;;28.87;;
17201;SDS011;8717;53.588;10.176;2022-11-21T05:00:45;50.23;;;25.17;;
17201;SDS011;8717;53.588;10.176;2022-11-21T05:03:12;48.70;;;25.03;;
17201;SDS011;8717;53.588;10.176;2022-11-21T05:05:39;51.63;;;24.03;;
17201;SDS011;8717;53.588;10.176;2022-11-21T05:08:06;92.07;;;28.60;;
17201;SDS011;8717;53.588;10.176;2022-11-21T05:10:32;50.43;;;25.50;;
17201;SDS011;8717;53.588;10.176;2022-11-21T05:13:19;73.60;;;27.57;;
17201;SDS011;8717;53.588;10.176;2022-11-21T05:15:46;126.57;;;28.87;;
17201;SDS011;8717;53.588;10.176;2022-11-21T05:18:15;90.40;;;28.10;;
17201;SDS011;8717;53.588;10.176;2022-11-21T05:20:46;104.47;;;26.93;;
17201;SDS011;8717;53.588;10.176;2022-11-21T05:23:12;89.33;;;27.63;;
17201;SDS011;8717;53.588;10.176;2022-11-21T05:25:39;94.67;;;26.00;;
17201;SDS011;8717;53.588;10.176;2022-11-21T05:28:06;64.20;;;23.23;;
17201;SDS011;8717;53.588;10.176;2022-11-21T05:30:34;203.83;;;32.23;;
17201;SDS011;8717;53.588;10.176;2022-11-21T05:33:03;144.20;;;26.27;;
17201;SDS011;8717;53.588;10.176;2022-11-21T05:35:30;245.33;;;31.70;;
17201;SDS011;8717;53.588;10.176;2022-11-21T05:37:57;87.70;;;24.33;;
17201;SDS011;8717;53.588;10.176;2022-11-21T05:40:24;77.20;;;24.50;;
17201;SDS011;8717;53.588;10.176;2022-11-21T05:42:51;164.83;;;28.97;;
17201;SDS011;8717;53.588;10.176;2022-11-21T05:45:35;244.43;;;30.77;;
17201;SDS011;8717;53.588;10.176;2022-11-21T05:48:03;131.60;;;28.50;;
17201;SDS011;8717;53.588;10.176;2022-11-21T05:50:32;90.10;;;25.67;;
17201;SDS011;8717;53.588;10.176;2022-11-21T05:52:59;216.53;;;29.40;;
17201;SDS011;8717;53.588;10.176;2022-11-21T05:55:27;250.20;;;29.77;;
17201;SDS011;8717;53.588;10.176;2022-11-21T05:57:56;229.50;;;30.80;;
17201;SDS011;8717;53.588;10.176;2022-11-21T06:00:23;217.17;;;29.93;;
17201;SDS011;8717;53.588;10.176;2022-11-21T06:02:50;160.60;;;26.97;;
17201;SDS011;8717;53.588;10.176;2022-11-21T06:05:36;161.00;;;25.07;;
17201;SDS011;8717;53.588;10.176;2022-11-21T06:08:02;196.17;;;28.50;;
17201;SDS011;8717;53.588;10.176;2022-11-21T06:10:29;725.20;;;71.60;;
17201;SDS011;8717;53.588;10.176;2022-11-21T06:12:58;260.43;;;32.07;;
17201;SDS011;8717;53.588;10.176;2022-11-21T06:15:25;179.30;;;27.03;;
17201;SDS011;8717;53.588;10.176;2022-11-21T06:17:52;189.17;;;28.57;;
17201;SDS011;8717;53.588;10.176;2022-11-21T06:20:19;307.70;;;38.63;;
17201;SDS011;8717;53.588;10.176;2022-11-21T06:22:47;260.87;;;32.77;;
17201;SDS011;8717;53.588;10.176;2022-11-21T06:25:13;110.77;;;24.03;;
17201;SDS011;8717;53.588;10.176;2022-11-21T06:27:40;168.97;;;28.67;;
17201;SDS011;8717;53.588;10.176;2022-11-21T06:30:07;241.57;;;33.17;;
17201;SDS011;8717;53.588;10.176;2022-11-21T06:32:35;700.43;;;79.53;;
17201;SDS011;8717;53.588;10.176;2022-11-21T06:35:02;61.17;;;23.70;;
17201;SDS011;8717;53.588;10.176;2022-11-21T06:37:29;71.23;;;23.47;;
17201;SDS011;8717;53.588;10.176;2022-11-21T06:39:57;66.77;;;23.03;;
17201;SDS011;8717;53.588;10.176;2022-11-21T06:42:24;63.53;;;23.10;;
17201;SDS011;8717;53.588;10.176;2022-11-21T06:44:50;182.60;;;31.37;;
17201;SDS011;8717;53.588;10.176;2022-11-21T06:47:17;301.20;;;37.30;;
17201;SDS011;8717;53.588;10.176;2022-11-21T06:49:44;105.37;;;27.10;;
17201;SDS011;8717;53.588;10.176;2022-11-21T06:52:11;98.80;;;28.80;;
17201;SDS011;8717;53.588;10.176;2022-11-21T06:54:37;107.30;;;28.90;;
17201;SDS011;8717;53.588;10.176;2022-11-21T06:57:05;80.73;;;27.37;;
17201;SDS011;8717;53.588;10.176;2022-11-21T06:59:32;65.93;;;26.80;;
17201;SDS011;8717;53.588;10.176;2022-11-21T07:01:59;73.10;;;27.20;;
17201;SDS011;8717;53.588;10.176;2022-11-21T07:04:25;58.60;;;25.33;;
17201;SDS011;8717;53.588;10.176;2022-11-21T07:06:52;47.70;;;24.03;;
17201;SDS011;8717;53.588;10.176;2022-11-21T07:09:19;94.63;;;27.13;;
17201;SDS011;8717;53.588;10.176;2022-11-21T07:11:45;55.37;;;25.30;;
17201;SDS011;8717;53.588;10.176;2022-11-21T07:14:32;82.53;;;26.33;;
17201;SDS011;8717;53.588;10.176;2022-11-21T07:16:59;47.27;;;24.97;;
17201;SDS011;8717;53.588;10.176;2022-11-21T07:19:26;44.53;;;24.73;;
17201;SDS011;8717;53.588;10.176;2022-11-21T07:21:52;43.00;;;24.30;;
17201;SDS011;8717;53.588;10.176;2022-11-21T07:24:19;111.40;;;26.20;;
17201;SDS011;8717;53.588;10.176;2022-11-21T07:26:46;52.23;;;23.23;;
17201;SDS011;8717;53.588;10.176;2022-11-21T07:29:12;48.50;;;24.27;;
17201;SDS011;8717;53.588;10.176;2022-11-21T07:31:40;50.87;;;25.60;;
17201;SDS011;8717;53.588;10.176;2022-11-21T07:34:07;65.57;;;25.37;;
17201;SDS011;8717;53.588;10.176;2022-11-21T07:36:34;89.90;;;27.27;;
17201;SDS011;8717;53.588;10.176;2022-11-21T07:39:01;76.43;;;26.07;;
17201;SDS011;8717;53.588;10.176;2022-11-21T07:41:27;272.83;;;38.83;;
17201;SDS011;8717;53.588;10.176;2022-11-21T07:43:54;62.37;;;23.73;;
17201;SDS011;8717;53.588;10.176;2022-11-21T07:46:21;52.67;;;23.97;;
17201;SDS011;8717;53.588;10.176;2022-11-21T07:48:49;68.57;;;22.73;;
17201;SDS011;8717;53.588;10.176;2022-11-21T07:51:16;54.27;;;22.83;;
17201;SDS011;8717;53.588;10.176;2022-11-21T07:53:42;48.13;;;23.53;;
17201;SDS011;8717;53.588;10.176;2022-11-21T07:56:09;242.17;;;34.80;;
17201;SDS011;8717;53.588;10.176;2022-11-21T07:58:36;60.77;;;24.33;;
17201;SDS011;8717;53.588;10.176;2022-11-21T08:01:02;49.13;;;23.33;;
17201;SDS011;8717;53.588;10.176;2022-11-21T08:03:30;43.77;;;22.10;;
17201;SDS011;8717;53.588;10.176;2022-11-21T08:05:59;92.07;;;27.30;;
17201;SDS011;8717;53.588;10.176;2022-11-21T08:08:27;57.53;;;29.10;;
17201;SDS011;8717;53.588;10.176;2022-11-21T08:10:53;73.77;;;26.53;;
17201;SDS011;8717;53.588;10.176;2022-11-21T08:13:20;91.87;;;24.17;;
17201;SDS011;8717;53.588;10.176;2022-11-21T08:15:47;55.97;;;24.37;;
17201;SDS011;8717;53.588;10.176;2022-11-21T08:18:14;42.30;;;22.93;;
17201;SDS011;8717;53.588;10.176;2022-11-21T08:20:43;125.20;;;27.13;;
17201;SDS011;8717;53.588;10.176;2022-11-21T08:23:11;110.40;;;24.13;;
17201;SDS011;8717;53.588;10.176;2022-11-21T08:25:38;148.97;;;25.87;;
17201;SDS011;8717;53.588;10.176;2022-11-21T08:28:06;78.73;;;24.07;;
17201;SDS011;8717;53.588;10.176;2022-11-21T08:30:37;113.43;;;26.90;;
17201;SDS011;8717;53.588;10.176;2022-11-21T08:33:05;142.90;;;27.43;;
17201;SDS011;8717;53.588;10.176;2022-11-21T08:35:34;56.40;;;23.60;;
17201;SDS011;8717;53.588;10.176;2022-11-21T08:38:01;97.87;;;25.57;;
17201;SDS011;8717;53.588;10.176;2022-11-21T08:40:30;325.67;;;38.90;;
17201;SDS011;8717;53.588;10.176;2022-11-21T08:42:58;118.73;;;25.33;;
17201;SDS011;8717;53.588;10.176;2022-11-21T08:45:25;93.57;;;24.83;;
17201;SDS011;8717;53.588;10.176;2022-11-21T08:47:52;123.80;;;26.43;;
17201;SDS011;8717;53.588;10.176;2022-11-21T08:50:18;71.97;;;24.80;;
17201;SDS011;8717;53.588;10.176;2022-11-21T08:52:45;48.70;;;22.23;;
17201;SDS011;8717;53.588;10.176;2022-11-21T08:55:12;49.87;;;21.90;;
17201;SDS011;8717;53.588;10.176;2022-11-21T08:57:41;100.40;;;24.20;;
17201;SDS011;8717;53.588;10.176;2022-11-21T09:00:08;39.40;;;19.47;;
17201;SDS011;8717;53.588;10.176;2022-11-21T09:02:37;51.80;;;21.93;;
17201;SDS011;8717;53.588;10.176;2022-11-21T09:05:04;41.83;;;21.27;;
17201;SDS011;8717;53.588;10.176;2022-11-21T09:07:31;70.53;;;23.10;;
17201;SDS011;8717;53.588;10.176;2022-11-21T09:09:58;34.30;;;20.90;;
17201;SDS011;8717;53.588;10.176;2022-11-21T09:12:25;54.30;;;22.57;;
17201;SDS011;8717;53.588;10.176;2022-11-21T09:14:52;40.73;;;22.73;;
17201;SDS011;8717;53.588;10.176;2022-11-21T09:17:37;56.10;;;21.83;;
17201;SDS011;8717;53.588;10.176;2022-11-21T09:20:21;71.73;;;22.17;;
17201;SDS011;8717;53.588;10.176;2022-11-21T09:22:48;53.80;;;22.90;;
17201;SDS011;8717;53.588;10.176;2022-11-21T09:25:15;237.87;;;32.83;;
17201;SDS011;8717;53.588;10.176;2022-11-21T09:27:43;50.10;;;22.30;;
17201;SDS011;8717;53.588;10.176;2022-11-21T09:30:12;50.50;;;23.33;;
17201;SDS011;8717;53.588;10.176;2022-11-21T09:32:39;53.03;;;23.13;;
17201;SDS011;8717;53.588;10.176;2022-11-21T09:35:08;37.93;;;22.43;;
17201;SDS011;8717;53.588;10.176;2022-11-21T09:37:35;42.37;;;22.03;;
17201;SDS011;8717;53.588;10.176;2022-11-21T09:40:02;44.93;;;21.47;;
17201;SDS011;8717;53.588;10.176;2022-11-21T09:42:37;32.53;;;21.17;;
17201;SDS011;8717;53.588;10.176;2022-11-21T09:45:20;38.43;;;19.67;;
17201;SDS011;8717;53.588;10.176;2022-11-21T09:47:50;42.13;;;20.10;;
17201;SDS011;8717;53.588;10.176;2022-11-21T09:50:20;80.07;;;22.30;;
17201;SDS011;8717;53.588;10.176;2022-11-21T09:52:53;79.90;;;22.60;;
17201;SDS011;8717;53.588;10.176;2022-11-21T09:55:25;56.77;;;22.20;;
17201;SDS011;8717;53.588;10.176;2022-11-21T09:57:56;89.57;;;27.40;;
17201;SDS011;8717;53.588;10.176;2022-11-21T10:00:28;32.90;;;21.53;;
17201;SDS011;8717;53.588;10.176;2022-11-21T10:02:55;30.30;;;19.47;;
17201;SDS011;8717;53.588;10.176;2022-11-21T10:05:24;33.43;;;20.50;;
17201;SDS011;8717;53.588;10.176;2022-11-21T10:07:58;33.63;;;20.47;;
17201;SDS011;8717;53.588;10.176;2022-11-21T10:10:36;27.70;;;18.03;;
17201;SDS011;8717;53.588;10.176;2022-11-21T10:13:17;26.30;;;17.13;;
17201;SDS011;8717;53.588;10.176;2022-11-21T10:15:56;29.43;;;18.53;;
17201;SDS011;8717;53.588;10.176;2022-11-21T10:18:42;28.20;;;18.40;;
17201;SDS011;8717;53.588;10.176;2022-11-21T10:21:40;26.80;;;18.07;;
17201;SDS011;8717;53.588;10.176;2022-11-21T10:24:20;27.37;;;17.57;;
17201;SDS011;8717;53.588;10.176;2022-11-21T10:26:57;26.23;;;18.67;;
17201;SDS011;8717;53.588;10.176;2022-11-21T10:29:27;25.20;;;17.47;;
17201;SDS011;8717;53.588;10.176;2022-11-21T10:32:00;25.37;;;17.50;;
17201;SDS011;8717;53.588;10.176;2022-11-21T10:34:34;24.87;;;17.50;;
17201;SDS011;8717;53.588;10.176;2022-11-21T10:37:05;24.70;;;17.50;;
17201;SDS011;8717;53.588;10.176;2022-11-21T10:39:39;30.80;;;18.27;;
17201;SDS011;8717;53.588;10.176;2022-11-21T10:42:11;34.20;;;18.43;;
17201;SDS011;8717;53.588;10.176;2022-11-21T10:44:52;28.20;;;17.90;;
17201;SDS011;8717;53.588;10.176;2022-11-21T10:47:38;25.57;;;17.67;;
17201;SDS011;8717;53.588;10.176;2022-11-21T10:50:11;27.50;;;17.47;;
17201;SDS011;8717;53.588;10.176;2022-11-21T10:53:02;31.67;;;18.80;;
17201;SDS011;8717;53.588;10.176;2022-11-21T10:55:55;26.57;;;17.63;;
17201;SDS011;8717;53.588;10.176;2022-11-21T10:58:32;25.07;;;17.50;;
17201;SDS011;8717;53.588;10.176;2022-11-21T11:01:01;27.20;;;17.87;;
17201;SDS011;8717;53.588;10.176;2022-11-21T11:03:31;29.97;;;20.03;;
17201;SDS011;8717;53.588;10.176;2022-11-21T11:05:58;27.60;;;18.33;;
17201;SDS011;8717;53.588;10.176;2022-11-21T11:08:24;26.63;;;17.97;;
17201;SDS011;8717;53.588;10.176;2022-11-21T11:11:03;28.00;;;19.20;;
17201;SDS011;8717;53.588;10.176;2022-11-21T11:13:31;27.63;;;18.33;;
17201;SDS011;8717;53.588;10.176;2022-11-21T11:16:00;27.73;;;17.90;;
17201;SDS011;8717;53.588;10.176;2022-11-21T11:18:31;24.50;;;17.23;;
17201;SDS011;8717;53.588;10.176;2022-11-21T11:21:10;28.60;;;17.70;;
17201;SDS011;8717;53.588;10.176;2022-11-21T11:23:41;24.40;;;17.10;;
17201;SDS011;8717;53.588;10.176;2022-11-21T11:26:18;24.90;;;17.37;;
17201;SDS011;8717;53.588;10.176;2022-11-21T11:28:47;25.17;;;16.13;;
17201;SDS011;8717;53.588;10.176;2022-11-21T11:31:14;25.23;;;16.00;;
17201;SDS011;8717;53.588;10.176;2022-11-21T11:33:48;23.03;;;16.37;;
17201;SDS011;8717;53.588;10.176;2022-11-21T11:36:19;23.33;;;16.03;;
17201;SDS011;8717;53.588;10.176;2022-11-21T11:38:58;21.40;;;15.10;;
17201;SDS011;8717;53.588;10.176;2022-11-21T11:41:37;19.87;;;15.13;;
17201;SDS011;8717;53.588;10.176;2022-11-21T11:44:35;23.03;;;15.80;;
17201;SDS011;8717;53.588;10.176;2022-11-21T11:47:29;19.80;;;14.30;;
17201;SDS011;8717;53.588;10.176;2022-11-21T11:50:07;18.03;;;13.80;;
17201;SDS011;8717;53.588;10.176;2022-11-21T11:52:38;19.70;;;13.87;;
17201;SDS011;8717;53.588;10.176;2022-11-21T11:55:14;19.43;;;13.77;;
17201;SDS011;8717;53.588;10.176;2022-11-21T11:57:45;17.03;;;12.93;;
17201;SDS011;8717;53.588;10.176;2022-11-21T12:00:21;20.37;;;13.30;;
17201;SDS011;8717;53.588;10.176;2022-11-21T12:02:59;17.30;;;12.63;;
17201;SDS011;8717;53.588;10.176;2022-11-21T12:05:32;17.10;;;12.53;;
17201;SDS011;8717;53.588;10.176;2022-11-21T12:08:04;15.93;;;12.60;;
17201;SDS011;8717;53.588;10.176;2022-11-21T12:10:39;19.07;;;12.47;;
17201;SDS011;8717;53.588;10.176;2022-11-21T12:13:22;17.17;;;11.87;;
17201;SDS011;8717;53.588;10.176;2022-11-21T12:15:50;13.83;;;11.20;;
17201;SDS011;8717;53.588;10.176;2022-11-21T12:18:24;15.30;;;11.07;;
17201;SDS011;8717;53.588;10.176;2022-11-21T12:20:57;14.83;;;11.33;;
17201;SDS011;8717;53.588;10.176;2022-11-21T12:23:29;16.73;;;11.50;;
17201;SDS011;8717;53.588;10.176;2022-11-21T12:26:03;17.17;;;11.97;;
17201;SDS011;8717;53.588;10.176;2022-11-21T12:28:41;16.87;;;10.60;;
17201;SDS011;8717;53.588;10.176;2022-11-21T12:31:17;14.00;;;10.70;;
17201;SDS011;8717;53.588;10.176;2022-11-21T12:33:52;13.73;;;10.60;;
17201;SDS011;8717;53.588;10.176;2022-11-21T12:36:26;15.13;;;11.40;;
17201;SDS011;8717;53.588;10.176;2022-11-21T12:39:08;16.63;;;11.27;;
17201;SDS011;8717;53.588;10.176;2022-11-21T12:41:46;13.10;;;10.33;;
17201;SDS011;8717;53.588;10.176;2022-11-21T12:44:38;14.00;;;10.50;;
17201;SDS011;8717;53.588;10.176;2022-11-21T12:47:26;14.17;;;10.30;;
17201;SDS011;8717;53.588;10.176;2022-11-21T12:50:25;16.87;;;10.57;;
17201;SDS011;8717;53.588;10.176;2022-11-21T12:53:19;13.73;;;9.90;;
17201;SDS011;8717;53.588;10.176;2022-11-21T12:56:11;15.20;;;10.13;;
17201;SDS011;8717;53.588;10.176;2022-11-21T12:58:50;14.73;;;10.70;;
17201;SDS011;8717;53.588;10.176;2022-11-21T13:01:21;13.03;;;9.93;;
17201;SDS011;8717;53.588;10.176;2022-11-21T13:03:54;15.00;;;10.60;;
17201;SDS011;8717;53.588;10.176;2022-11-21T13:06:25;13.37;;;9.83;;
17201;SDS011;8717;53.588;10.176;2022-11-21T13:08:55;12.00;;;8.63;;
17201;SDS011;8717;53.588;10.176;2022-11-21T13:11:27;16.17;;;9.67;;
17201;SDS011;8717;53.588;10.176;2022-11-21T13:14:17;12.27;;;9.10;;
17201;SDS011;8717;53.588;10.176;2022-11-21T13:16:53;12.33;;;8.60;;
17201;SDS011;8717;53.588;10.176;2022-11-21T13:19:31;11.60;;;8.60;;
17201;SDS011;8717;53.588;10.176;2022-11-21T13:22:02;14.70;;;9.53;;
17201;SDS011;8717;53.588;10.176;2022-11-21T13:27:25;11.80;;;8.03;;
17201;SDS011;8717;53.588;10.176;2022-11-21T13:32:57;10.83;;;7.43;;
17201;SDS011;8717;53.588;10.176;2022-11-21T13:38:29;10.43;;;7.30;;
17201;SDS011;8717;53.588;10.176;2022-11-21T13:41:18;9.93;;;7.53;;
17201;SDS011;8717;53.588;10.176;2022-11-21T13:44:41;10.13;;;6.93;;
17201;SDS011;8717;53.588;10.176;2022-11-21T13:47:10;9.97;;;7.23;;
17201;SDS011;8717;53.588;10.176;2022-11-21T13:49:58;11.07;;;6.97;;
17201;SDS011;8717;53.588;10.176;2022-11-21T13:52:32;10.57;;;7.07;;
17201;SDS011;8717;53.588;10.176;2022-11-21T13:55:17;9.73;;;7.53;;
17201;SDS011;8717;53.588;10.176;2022-11-21T13:58:03;9.63;;;6.93;;
17201;SDS011;8717;53.588;10.176;2022-11-21T14:00:47;12.10;;;7.70;;
17201;SDS011;8717;53.588;10.176;2022-11-21T14:03:31;8.70;;;6.97;;
17201;SDS011;8717;53.588;10.176;2022-11-21T14:06:20;10.07;;;6.87;;
17201;SDS011;8717;53.588;10.176;2022-11-21T14:09:16;10.20;;;6.33;;
17201;SDS011;8717;53.588;10.176;2022-11-21T14:11:48;7.87;;;6.00;;
17201;SDS011;8717;53.588;10.176;2022-11-21T14:14:32;8.83;;;6.00;;
17201;SDS011;8717;53.588;10.176;2022-11-21T14:17:05;7.60;;;5.63;;
17201;SDS011;8717;53.588;10.176;2022-11-21T14:19:41;13.83;;;7.10;;
17201;SDS011;8717;53.588;10.176;2022-11-21T14:22:12;10.10;;;7.17;;
17201;SDS011;8717;53.588;10.176;2022-11-21T14:24:41;10.07;;;6.80;;
17201;SDS011;8717;53.588;10.176;2022-11-21T14:27:10;9.70;;;6.67;;
17201;SDS011;8717;53.588;10.176;2022-11-21T14:29:50;9.97;;;6.90;;
17201;SDS011;8717;53.588;10.176;2022-11-21T14:32:17;9.03;;;6.90;;
17201;SDS011;8717;53.588;10.176;2022-11-21T14:34:51;9.63;;;6.97;;
17201;SDS011;8717;53.588;10.176;2022-11-21T14:37:20;10.40;;;6.93;;
17201;SDS011;8717;53.588;10.176;2022-11-21T14:39:46;9.50;;;6.63;;
17201;SDS011;8717;53.588;10.176;2022-11-21T14:42:13;9.50;;;6.47;;
17201;SDS011;8717;53.588;10.176;2022-11-21T14:44:41;8.57;;;6.77;;
17201;SDS011;8717;53.588;10.176;2022-11-21T14:47:13;11.07;;;6.57;;
17201;SDS011;8717;53.588;10.176;2022-11-21T14:49:47;9.93;;;7.07;;